Time;durP1;ratioP1;P1;durP2;ratioP2;P2;SDS_P1;SDS_P2;PMS_P1;PMS_P2;Temp;Humidity;BMP_temperature;BMP_pressure;BME280_temperature;BME280_humidity;BME280_pressure;Samples;Min_cycle;Max_cycle;Signal;HPM_P1;HPM_P2
2019/07/20 00:01:13;;;;;;;10.9;8.7;;;;;;;18.66;71.71191;939.1604;;;;
2019/07/20 00:03:43;;;;;;;8.9;8.1;;;;;;;18.62;71.91602;939.0964;;;;
2019/07/20 00:06:06;;;;;;;9.9;8.5;;;;;;;18.7;71.49707;939.1347;;;;
2019/07/20 00:08:29;;;;;;;9.8;8.8;;;;;;;18.66;71.43262;939.1266;;;;
2019/07/20 00:10:57;;;;;;;9.7;8.4;;;;;;;18.61;71.73828;939.0801;;;;
2019/07/20 00:13:21;;;;;;;10.4;8.4;;;;;;;18.59;71.875;938.9799;;;;
2019/07/20 00:15:49;;;;;;;12.3;9;;;;;;;18.52;72.07422;938.9885;;;;
2019/07/20 00:18:11;;;;;;;10.9;8.4;;;;;;;18.32;72.69238;938.9703;;;;
2019/07/20 00:20:37;;;;;;;9.7;8.3;;;;;;;18.41;72.46191;939.062;;;;
2019/07/20 00:23:02;;;;;;;13.8;8.8;;;;;;;18.2;73.33398;938.9673;;;;
2019/07/20 00:25:30;;;;;;;10.4;8.2;;;;;;;18.16;73.40723;938.9216;;;;
2019/07/20 00:27:52;;;;;;;10.6;8.8;;;;;;;18.06;73.77441;938.8911;;;;
2019/07/20 00:30:17;;;;;;;10.1;8.7;;;;;;;17.93;74.25195;938.8336;;;;
2019/07/20 00:32:47;;;;;;;12;8.5;;;;;;;18.02;73.86133;938.8698;;;;
2019/07/20 00:35:09;;;;;;;9.6;8.6;;;;;;;17.73;74.96191;938.8448;;;;
2019/07/20 00:37:35;;;;;;;11.9;8.8;;;;;;;17.62;75.29004;938.8324;;;;
2019/07/20 00:40:00;;;;;;;10.1;8.3;;;;;;;17.62;75.20996;938.7545;;;;
2019/07/20 00:42:28;;;;;;;10.2;8.5;;;;;;;17.57;75.45605;938.7439;;;;
2019/07/20 00:44:53;;;;;;;10.1;8.4;;;;;;;17.81;74.33691;938.7491;;;;
2019/07/20 00:47:23;;;;;;;9.4;8.2;;;;;;;17.99;73.57813;938.7575;;;;
2019/07/20 00:49:49;;;;;;;10.4;8.5;;;;;;;17.77;74.39941;938.7459;;;;
2019/07/20 00:55:57;;;;;;;11.6;8.3;;;;;;;17.62;75.11719;938.6732;;;;
2019/07/20 00:58:25;;;;;;;11.7;8.8;;;;;;;17.84;74.32031;938.6942;;;;
2019/07/20 01:00:52;;;;;;;11.5;8.7;;;;;;;17.75;74.70898;938.611;;;;
2019/07/20 01:03:17;;;;;;;11.1;9.1;;;;;;;17.69;74.67578;938.6442;;;;
2019/07/20 01:05:44;;;;;;;10.6;8.7;;;;;;;17.79;74.26465;938.6222;;;;
2019/07/20 01:08:18;;;;;;;10.2;8.7;;;;;;;17.88;73.89453;938.6379;;;;
2019/07/20 01:10:42;;;;;;;10.4;9;;;;;;;17.94;73.35938;938.5787;;;;
2019/07/20 01:13:07;;;;;;;10;8.7;;;;;;;17.87;73.61426;938.5664;;;;
2019/07/20 01:15:34;;;;;;;9.8;8.8;;;;;;;17.67;74.52148;938.5298;;;;
2019/07/20 01:18:01;;;;;;;15;9.2;;;;;;;17.64;74.72559;938.5683;;;;
2019/07/20 01:20:26;;;;;;;11.6;9;;;;;;;17.82;73.99023;938.5936;;;;
2019/07/20 01:22:52;;;;;;;9.6;8.6;;;;;;;17.7;74.24902;938.449;;;;
2019/07/20 01:25:18;;;;;;;14.3;8.9;;;;;;;17.5;75.12012;938.4728;;;;
2019/07/20 01:27:43;;;;;;;9.7;8.8;;;;;;;17.36;75.65234;938.4724;;;;
2019/07/20 01:30:11;;;;;;;9.7;8.7;;;;;;;17.55;74.98926;938.493;;;;
2019/07/20 01:32:35;;;;;;;11.5;9.2;;;;;;;17.47;75.19531;938.5151;;;;
2019/07/20 01:35:01;;;;;;;12.4;8.9;;;;;;;17.48;75.09375;938.5352;;;;
2019/07/20 01:37:27;;;;;;;12;9.2;;;;;;;17.43;75.43262;938.5248;;;;
2019/07/20 01:39:55;;;;;;;11.5;9.2;;;;;;;17.15;76.49805;938.507;;;;
2019/07/20 01:42:21;;;;;;;11.8;9.8;;;;;;;17.48;75.44043;938.5014;;;;
2019/07/20 01:44:47;;;;;;;11.6;9.2;;;;;;;17.48;74.9082;938.5053;;;;
2019/07/20 01:47:11;;;;;;;14;9.2;;;;;;;17.61;74.38281;938.5073;;;;
2019/07/20 01:49:36;;;;;;;12.9;9.7;;;;;;;17.49;74.72266;938.4955;;;;
2019/07/20 01:52:04;;;;;;;10;9;;;;;;;17.44;75.17773;938.5278;;;;
2019/07/20 01:54:27;;;;;;;10.3;9.2;;;;;;;17.26;75.7627;938.5231;;;;
2019/07/20 01:56:53;;;;;;;11.4;9.3;;;;;;;17.08;76.69336;938.4637;;;;
2019/07/20 01:59:17;;;;;;;10.2;9.1;;;;;;;17.14;76.34375;938.491;;;;
2019/07/20 02:01:42;;;;;;;11.5;8.9;;;;;;;17.06;76.64258;938.4576;;;;
2019/07/20 02:04:09;;;;;;;10.7;9.1;;;;;;;17.14;76.37891;938.4523;;;;
2019/07/20 02:06:34;;;;;;;10.8;8.9;;;;;;;16.87;77.43359;938.4931;;;;
2019/07/20 02:08:58;;;;;;;11.8;8.8;;;;;;;16.88;77.52637;938.4319;;;;
2019/07/20 02:11:29;;;;;;;10.3;9.2;;;;;;;16.85;77.53516;938.4266;;;;
2019/07/20 02:13:53;;;;;;;15.5;10;;;;;;;16.83;77.65723;938.4501;;;;
2019/07/20 02:16:18;;;;;;;12.4;10.6;;;;;;;16.92;77.44336;938.5253;;;;
2019/07/20 02:18:46;;;;;;;10.4;9;;;;;;;16.91;77.17188;938.45;;;;
2019/07/20 02:21:08;;;;;;;15.2;10.3;;;;;;;16.69;78.22363;938.5316;;;;
2019/07/20 02:26:25;;;;;;;11.8;10.1;;;;;;;16.87;77.37598;938.5011;;;;
2019/07/20 02:28:52;;;;;;;12.8;11.5;;;;;;;16.9;77.28809;938.5023;;;;
2019/07/20 02:31:20;;;;;;;16.6;13.3;;;;;;;16.89;77.25098;938.4904;;;;
2019/07/20 02:33:48;;;;;;;14.4;11;;;;;;;16.82;77.56445;938.5283;;;;
2019/07/20 02:36:17;;;;;;;16.6;12.1;;;;;;;16.82;77.38965;938.559;;;;
2019/07/20 02:38:39;;;;;;;15.4;12.7;;;;;;;16.72;77.70801;938.5784;;;;
2019/07/20 02:41:03;;;;;;;22.3;16;;;;;;;16.94;76.71484;938.5364;;;;
2019/07/20 02:43:29;;;;;;;20.4;15;;;;;;;16.98;76.61816;938.5309;;;;
2019/07/20 02:45:59;;;;;;;12.2;9.5;;;;;;;16.9;76.74316;938.5489;;;;
2019/07/20 02:48:24;;;;;;;10.1;9.1;;;;;;;16.59;78.18262;938.5042;;;;
2019/07/20 02:50:48;;;;;;;14.6;10;;;;;;;16.55;78.40625;938.5561;;;;
2019/07/20 02:53:19;;;;;;;12.7;9.7;;;;;;;16.52;78.50586;938.4955;;;;
2019/07/20 02:55:42;;;;;;;11.8;9.6;;;;;;;16.48;78.74219;938.5297;;;;
2019/07/20 02:58:09;;;;;;;14.2;10.9;;;;;;;16.37;79.16309;938.4777;;;;
2019/07/20 03:00:32;;;;;;;11;9.9;;;;;;;16.3;79.42773;938.4817;;;;
2019/07/20 03:03:00;;;;;;;13.6;12.2;;;;;;;16.23;79.7832;938.5164;;;;
2019/07/20 03:05:31;;;;;;;13.2;11.8;;;;;;;16.31;79.47363;938.5115;;;;
2019/07/20 03:07:56;;;;;;;15.1;11.8;;;;;;;16.61;78.08008;938.4548;;;;
2019/07/20 03:10:22;;;;;;;10.8;9.8;;;;;;;16.3;79.34668;938.4432;;;;
2019/07/20 03:12:47;;;;;;;10.7;9.5;;;;;;;16.18;79.96094;938.4355;;;;
2019/07/20 03:15:13;;;;;;;10.8;9.7;;;;;;;16.21;79.78125;938.4665;;;;
2019/07/20 03:17:40;;;;;;;10.6;9.6;;;;;;;16.25;79.44238;938.406;;;;
2019/07/20 03:20:05;;;;;;;11.5;10.1;;;;;;;16.35;78.96094;938.3864;;;;
2019/07/20 03:22:32;;;;;;;11.5;10.2;;;;;;;16.1;80.11816;938.4196;;;;
2019/07/20 03:24:59;;;;;;;11.4;10.2;;;;;;;16.1;80.34961;938.377;;;;
2019/07/20 03:27:26;;;;;;;11.6;10.4;;;;;;;16.04;80.47656;938.4139;;;;
2019/07/20 03:29:50;;;;;;;11;9.7;;;;;;;16.17;80.15332;938.4076;;;;
2019/07/20 03:32:17;;;;;;;10.1;9.1;;;;;;;16.21;80.11523;938.33;;;;
2019/07/20 03:34:41;;;;;;;10.9;9.9;;;;;;;16.3;79.54297;938.3621;;;;
2019/07/20 03:37:06;;;;;;;12.4;10;;;;;;;16.41;78.90332;938.3535;;;;
2019/07/20 03:39:35;;;;;;;12.9;10.4;;;;;;;16.37;78.72266;938.3748;;;;
2019/07/20 03:42:07;;;;;;;12;10.7;;;;;;;16.37;78.72168;938.3708;;;;
2019/07/20 03:44:31;;;;;;;12.3;11;;;;;;;16.23;79.31055;938.4305;;;;
2019/07/20 03:46:57;;;;;;;12.1;10.5;;;;;;;16.19;79.3252;938.491;;;;
2019/07/20 03:49:20;;;;;;;13.2;10.2;;;;;;;15.99;80.29492;938.4961;;;;
2019/07/20 03:51:48;;;;;;;15.2;10.2;;;;;;;16.03;80.12988;938.5907;;;;
2019/07/20 03:54:15;;;;;;;11.7;10.5;;;;;;;16.13;79.63965;938.4675;;;;
2019/07/20 03:56:39;;;;;;;11.9;10.4;;;;;;;16.17;79.25293;938.3681;;;;
2019/07/20 03:59:13;;;;;;;12.9;10.3;;;;;;;16.62;77.67871;938.3594;;;;
2019/07/20 04:02:31;;;;;;;14;10.5;;;;;;;16.46;78.08984;938.3781;;;;
2019/07/20 04:04:59;;;;;;;11.6;9.9;;;;;;;16.17;79.3916;938.4285;;;;
2019/07/20 04:07:21;;;;;;;12.3;10.4;;;;;;;16.5;78.45508;938.425;;;;
2019/07/20 04:09:47;;;;;;;11.8;10;;;;;;;16.49;78.02637;938.4171;;;;
2019/07/20 04:12:14;;;;;;;12.5;10;;;;;;;16.25;78.87402;938.4366;;;;
2019/07/20 04:14:39;;;;;;;11.1;9.9;;;;;;;16.15;79.56152;938.4439;;;;
2019/07/20 04:17:08;;;;;;;15.5;10.4;;;;;;;16.08;79.66602;938.46;;;;
2019/07/20 04:19:35;;;;;;;13.2;10.6;;;;;;;16.04;79.77344;938.4308;;;;
2019/07/20 04:22:16;;;;;;;12.8;10.7;;;;;;;15.97;80.17578;938.4771;;;;
2019/07/20 04:24:45;;;;;;;13.5;11;;;;;;;15.99;80.09863;938.4663;;;;
2019/07/20 04:27:11;;;;;;;11.1;10;;;;;;;15.99;79.99414;938.3635;;;;
2019/07/20 04:29:37;;;;;;;14.6;10.5;;;;;;;16.18;79.2793;938.3801;;;;
2019/07/20 04:32:03;;;;;;;11.3;10.2;;;;;;;16.3;78.8584;938.3582;;;;
2019/07/20 04:34:30;;;;;;;12.4;10.4;;;;;;;16.58;77.56836;938.3458;;;;
2019/07/20 04:36:59;;;;;;;11.4;10.3;;;;;;;16.74;76.69336;938.2936;;;;
2019/07/20 04:39:27;;;;;;;12.9;10;;;;;;;16.35;78.28027;938.2786;;;;
2019/07/20 04:41:49;;;;;;;13.1;9.7;;;;;;;16.55;77.57324;938.2346;;;;
2019/07/20 04:44:13;;;;;;;11.7;10.3;;;;;;;16.38;78.30762;938.1722;;;;
2019/07/20 04:46:41;;;;;;;11;9.8;;;;;;;16.49;77.84082;938.2924;;;;
2019/07/20 04:49:09;;;;;;;11.5;10.3;;;;;;;16.26;78.99121;938.2983;;;;
2019/07/20 04:51:37;;;;;;;11.7;10.2;;;;;;;16.25;79.24414;938.2992;;;;
2019/07/20 04:54:01;;;;;;;13.9;10.4;;;;;;;16.29;79.10059;938.2988;;;;
2019/07/20 04:56:27;;;;;;;11.6;10.4;;;;;;;16.43;78.66309;938.3253;;;;
2019/07/20 04:58:59;;;;;;;13.4;10.2;;;;;;;16.58;77.88086;938.3419;;;;
2019/07/20 05:01:17;;;;;;;12.5;9.7;;;;;;;16.69;77.48242;938.3128;;;;
2019/07/20 05:03:43;;;;;;;11.2;10;;;;;;;16.74;77.21484;938.3362;;;;
2019/07/20 05:06:21;;;;;;;12.1;9.8;;;;;;;17.04;76.4668;938.3783;;;;
2019/07/20 05:08:34;;;;;;;12.3;10.1;;;;;;;17.28;76.32227;938.4609;;;;
2019/07/20 05:11:00;;;;;;;12.2;9.5;;;;;;;17.44;75.35156;938.4119;;;;
2019/07/20 05:13:25;;;;;;;10.2;9.2;;;;;;;17.53;74.55664;938.4047;;;;
2019/07/20 05:15:52;;;;;;;11.5;7.9;;;;;;;17.63;74.46875;938.3976;;;;
2019/07/20 05:18:19;;;;;;;8.2;7.2;;;;;;;18.61;70.81934;938.4866;;;;
2019/07/20 05:20:45;;;;;;;9.8;7.3;;;;;;;19.61;66.93555;938.4423;;;;
2019/07/20 05:23:12;;;;;;;13.1;6.8;;;;;;;20.94;62.54199;938.4434;;;;
2019/07/20 05:25:36;;;;;;;8;6.3;;;;;;;22.01;58.04102;938.4128;;;;
2019/07/20 05:28:01;;;;;;;7.5;6.2;;;;;;;22.58;56.6123;938.4377;;;;
2019/07/20 05:30:29;;;;;;;10.3;5.9;;;;;;;23.28;54.51465;938.4598;;;;
2019/07/20 05:32:57;;;;;;;9.6;5.9;;;;;;;23.4;54.43652;938.45;;;;
2019/07/20 05:35:24;;;;;;;12.2;6.2;;;;;;;24.06;52.2793;938.4196;;;;
2019/07/20 05:37:47;;;;;;;8.2;5.8;;;;;;;24.21;51.83789;938.3798;;;;
2019/07/20 05:40:30;;;;;;;7.9;6.2;;;;;;;24.81;49.95996;938.3602;;;;
2019/07/20 05:42:37;;;;;;;9.3;6.1;;;;;;;24.44;50.34375;938.272;;;;
2019/07/20 05:45:04;;;;;;;11.7;5.8;;;;;;;24;52.00098;938.2852;;;;
2019/07/20 05:47:28;;;;;;;7.9;5.8;;;;;;;24.37;51.125;938.3733;;;;
2019/07/20 05:49:52;;;;;;;9.3;6;;;;;;;25.14;49.2666;938.3228;;;;
2019/07/20 05:52:19;;;;;;;9;5.6;;;;;;;24.72;49.37305;938.2556;;;;
2019/07/20 05:54:45;;;;;;;9;5.4;;;;;;;24.71;49.85645;938.309;;;;
2019/07/20 05:57:15;;;;;;;10.8;5.6;;;;;;;25.35;48.54492;938.2743;;;;
2019/07/20 05:59:42;;;;;;;12.1;5.6;;;;;;;26.6;45.1875;938.2889;;;;
2019/07/20 06:02:06;;;;;;;8.6;5.2;;;;;;;27.2;43.89648;938.3631;;;;
2019/07/20 06:04:34;;;;;;;7.9;5.6;;;;;;;27;44.03027;938.3478;;;;
2019/07/20 06:06:59;;;;;;;7.2;5.1;;;;;;;26.39;45.79395;938.3868;;;;
2019/07/20 06:09:25;;;;;;;8.9;5.2;;;;;;;26.15;46.53809;938.3373;;;;
2019/07/20 06:11:51;;;;;;;8.9;5.3;;;;;;;26.73;45.81738;938.3025;;;;
2019/07/20 06:14:22;;;;;;;8.1;5.3;;;;;;;27.04;47.78125;938.3629;;;;
2019/07/20 06:16:47;;;;;;;14.1;6;;;;;;;28.11;42.93945;938.3378;;;;
2019/07/20 06:19:18;;;;;;;7;5.2;;;;;;;28.62;42.03711;938.3713;;;;
2019/07/20 06:21:45;;;;;;;8;4.7;;;;;;;28.35;41.76172;938.3816;;;;
2019/07/20 06:26:36;;;;;;;8.8;4.7;;;;;;;29.87;38.20508;938.314;;;;
2019/07/20 06:29:08;;;;;;;23.3;5.9;;;;;;;30.5;37.44629;938.3546;;;;
2019/07/20 06:31:33;;;;;;;9.4;4.6;;;;;;;30.85;36.3291;938.3842;;;;
2019/07/20 06:33:59;;;;;;;5.6;4.4;;;;;;;30.25;37.12695;938.3365;;;;
2019/07/20 06:36:23;;;;;;;11.1;4.4;;;;;;;30.98;36.07617;938.2953;;;;
2019/07/20 06:38:48;;;;;;;12.9;4.5;;;;;;;31.07;34.27637;938.3425;;;;
2019/07/20 06:41:18;;;;;;;5;3.9;;;;;;;29.96;35.63574;938.3467;;;;
2019/07/20 06:43:43;;;;;;;7;4.5;;;;;;;30.48;36.25;938.3137;;;;
2019/07/20 06:46:07;;;;;;;6.3;4.1;;;;;;;31.65;36.21191;938.2475;;;;
2019/07/20 06:48:32;;;;;;;5.8;4.1;;;;;;;32.81;32.42676;938.2483;;;;
2019/07/20 06:51:00;;;;;;;9.5;4.1;;;;;;;33.81;30.53711;938.3345;;;;
2019/07/20 06:53:24;;;;;;;6.6;3.8;;;;;;;34.12;27.99316;938.2733;;;;
2019/07/20 06:55:47;;;;;;;4.5;3.6;;;;;;;34.36;28.41699;938.2761;;;;
2019/07/20 06:58:13;;;;;;;4.6;3.7;;;;;;;34.24;28.67578;938.2144;;;;
2019/07/20 07:00:37;;;;;;;5.9;3.7;;;;;;;33.88;30.79492;938.2823;;;;
2019/07/20 07:03:05;;;;;;;4.6;3.4;;;;;;;34.59;28.61328;938.3117;;;;
2019/07/20 07:05:30;;;;;;;5.6;3.6;;;;;;;34.59;31.57813;938.2985;;;;
2019/07/20 07:07:57;;;;;;;4.7;3.7;;;;;;;34.75;27.7793;938.2888;;;;
2019/07/20 07:10:25;;;;;;;4.4;3.7;;;;;;;34.87;29.22168;938.2353;;;;
2019/07/20 07:12:53;;;;;;;5.1;3.8;;;;;;;35.81;28.62891;938.2949;;;;
2019/07/20 07:15:21;;;;;;;6.5;3.6;;;;;;;34.53;27.79004;938.2955;;;;
2019/07/20 07:17:45;;;;;;;5.8;3.4;;;;;;;33.82;31.22363;938.1837;;;;
2019/07/20 07:20:13;;;;;;;4;3.4;;;;;;;34.39;29.98535;938.2477;;;;
2019/07/20 07:22:37;;;;;;;6.6;3.3;;;;;;;34.76;29.20215;938.2648;;;;
2019/07/20 07:25:03;;;;;;;4.7;3.5;;;;;;;35.83;27.86816;938.2693;;;;
2019/07/20 07:27:33;;;;;;;6.8;3.4;;;;;;;36.42;28.11035;938.2408;;;;
2019/07/20 07:30:01;;;;;;;5.6;3.4;;;;;;;36.7;24.74902;938.2642;;;;
2019/07/20 07:32:30;;;;;;;5.9;3.6;;;;;;;35.96;26.93359;938.2215;;;;
2019/07/20 07:34:55;;;;;;;7.7;4.4;;;;;;;36.1;26.61523;938.2037;;;;
2019/07/20 07:37:21;;;;;;;20.6;3.9;;;;;;;36.74;25.42969;938.2034;;;;
2019/07/20 07:39:45;;;;;;;11.4;3.7;;;;;;;37.12;25.2207;938.1627;;;;
2019/07/20 07:42:12;;;;;;;5.4;3.4;;;;;;;36.22;27.88086;938.1473;;;;
2019/07/20 07:44:40;;;;;;;5.2;3.3;;;;;;;36.96;25.86523;938.134;;;;
2019/07/20 07:47:00;;;;;;;5.8;3.3;;;;;;;36.99;24.57129;938.1528;;;;
2019/07/20 07:49:28;;;;;;;11.1;3.5;;;;;;;36.09;27.57031;938.1389;;;;
2019/07/20 07:51:54;;;;;;;4.9;3.3;;;;;;;36.37;28.34961;938.14;;;;
2019/07/20 07:54:19;;;;;;;6;3.1;;;;;;;36.77;26.47266;938.0964;;;;
2019/07/20 07:56:43;;;;;;;3.4;3.1;;;;;;;37.14;24.34863;938.0666;;;;
2019/07/20 07:59:08;;;;;;;4.1;3.2;;;;;;;36.89;26.14063;938.1559;;;;
2019/07/20 08:01:39;;;;;;;5.1;3.2;;;;;;;37.98;24.27246;938.0933;;;;
2019/07/20 08:04:03;;;;;;;8.2;3.5;;;;;;;37.78;24.18848;938.0863;;;;
2019/07/20 08:06:27;;;;;;;5.3;3.2;;;;;;;38.18;25.77637;938.1113;;;;
2019/07/20 08:08:54;;;;;;;6.4;3.6;;;;;;;38.43;23.12891;938.1121;;;;
2019/07/20 08:11:21;;;;;;;5.1;3;;;;;;;37.62;22.74805;938.0656;;;;
2019/07/20 08:13:49;;;;;;;4;3;;;;;;;37.64;24.55664;938.1462;;;;
2019/07/20 08:16:14;;;;;;;5.8;3.3;;;;;;;37.86;25.89258;938.0959;;;;
2019/07/20 08:18:45;;;;;;;3.9;2.8;;;;;;;38.65;23.95508;938.0492;;;;
2019/07/20 08:21:15;;;;;;;5.3;3.3;;;;;;;38.68;23.67676;938.0373;;;;
2019/07/20 08:23:40;;;;;;;4.9;3.2;;;;;;;37.68;22.72754;938.0667;;;;
2019/07/20 08:26:08;;;;;;;4.3;3;;;;;;;37.17;25.35645;938.0377;;;;
2019/07/20 08:28:31;;;;;;;4.5;2.8;;;;;;;37.21;24.4248;938.0298;;;;
2019/07/20 08:30:57;;;;;;;6.4;3;;;;;;;38.31;25.73535;938.0522;;;;
2019/07/20 08:33:27;;;;;;;4.1;2.7;;;;;;;38.09;24.42383;938.0447;;;;
2019/07/20 08:35:57;;;;;;;3.7;2.8;;;;;;;38.62;22.56738;938.0269;;;;
2019/07/20 08:38:25;;;;;;;5.6;3;;;;;;;39.31;24.95117;938.0428;;;;
2019/07/20 08:40:51;;;;;;;6.8;2.7;;;;;;;39.9;22.09277;938.0284;;;;
2019/07/20 08:43:15;;;;;;;6.7;2.9;;;;;;;39.56;22.83301;937.9322;;;;
2019/07/20 08:45:43;;;;;;;3.9;2.8;;;;;;;40;21.56152;938.0033;;;;
2019/07/20 08:48:12;;;;;;;7;2.8;;;;;;;39.54;24.24414;938.0211;;;;
2019/07/20 08:50:40;;;;;;;4.5;3;;;;;;;39.65;22.17871;937.9567;;;;
2019/07/20 08:53:04;;;;;;;6;2.8;;;;;;;39.35;24.97754;938.0119;;;;
2019/07/20 08:55:29;;;;;;;4.2;2.6;;;;;;;38.7;23.68945;937.9542;;;;
2019/07/20 08:57:52;;;;;;;5.2;2.7;;;;;;;39;23.09668;937.9579;;;;
2019/07/20 09:00:18;;;;;;;5.8;3;;;;;;;38.5;24.95605;937.8926;;;;
2019/07/20 09:02:43;;;;;;;4.8;2.8;;;;;;;38.29;25.97656;937.8668;;;;
2019/07/20 09:05:08;;;;;;;5.5;2.7;;;;;;;37.78;25.12305;937.7899;;;;
2019/07/20 09:07:35;;;;;;;3.7;2.8;;;;;;;37.72;24.5498;937.7743;;;;
2019/07/20 09:10:02;;;;;;;3.7;2.9;;;;;;;37.98;24.35645;937.7888;;;;
2019/07/20 09:12:27;;;;;;;4.5;3;;;;;;;37.85;23.74316;937.8236;;;;
2019/07/20 09:15:02;;;;;;;4.7;2.9;;;;;;;37.77;23.15625;937.782;;;;
2019/07/20 09:17:34;;;;;;;5.1;2.9;;;;;;;37.49;22.47559;937.7506;;;;
2019/07/20 09:20:05;;;;;;;3.8;2.7;;;;;;;37;23.33594;937.741;;;;
2019/07/20 09:22:29;;;;;;;6;2.8;;;;;;;37.06;22.8418;937.7234;;;;
2019/07/20 09:24:57;;;;;;;4.9;2.9;;;;;;;37;24.83789;937.7848;;;;
2019/07/20 09:27:23;;;;;;;4.3;3;;;;;;;36.62;25.72559;937.7099;;;;
2019/07/20 09:29:48;;;;;;;4.3;3.1;;;;;;;35.77;27.55078;937.6317;;;;
2019/07/20 09:32:14;;;;;;;3.5;3.2;;;;;;;35.55;28.55176;937.6169;;;;
2019/07/20 09:34:37;;;;;;;6.5;3.6;;;;;;;34.96;28.32227;937.6573;;;;
2019/07/20 09:37:07;;;;;;;4.9;3.2;;;;;;;34.91;29.69434;937.6531;;;;
2019/07/20 09:39:40;;;;;;;5.7;3.2;;;;;;;34.87;30.34375;937.6566;;;;
2019/07/20 09:42:07;;;;;;;5.3;3.4;;;;;;;35.27;28.58301;937.7079;;;;
2019/07/20 09:44:31;;;;;;;4.9;3.2;;;;;;;34.92;29.08008;937.7442;;;;
2019/07/20 09:47:00;;;;;;;3.8;3.2;;;;;;;34.61;28.14355;937.7209;;;;
2019/07/20 09:49:28;;;;;;;5.5;3;;;;;;;34.71;28.91016;937.7269;;;;
2019/07/20 09:51:54;;;;;;;4;3.3;;;;;;;34.97;28.51563;937.7485;;;;
2019/07/20 09:54:19;;;;;;;4.7;3;;;;;;;35.2;28.84375;937.7211;;;;
2019/07/20 09:56:43;;;;;;;3.2;2.9;;;;;;;34.81;29.50684;937.7209;;;;
2019/07/20 09:59:08;;;;;;;6.5;3;;;;;;;35.09;28.29395;937.7289;;;;
2019/07/20 10:01:34;;;;;;;3.9;3.1;;;;;;;35.24;27.96582;937.7971;;;;
2019/07/20 10:03:58;;;;;;;5;3.1;;;;;;;35.19;29.43555;937.728;;;;
2019/07/20 10:06:25;;;;;;;6.4;3.1;;;;;;;35.58;28.04688;937.6241;;;;
2019/07/20 10:08:51;;;;;;;5;3.2;;;;;;;35.88;27.07422;937.6453;;;;
2019/07/20 10:11:16;;;;;;;4.1;3.1;;;;;;;35.76;27.96094;937.6558;;;;
2019/07/20 10:13:40;;;;;;;4.6;3.1;;;;;;;35.48;28.52344;937.7061;;;;
2019/07/20 10:16:13;;;;;;;6.1;3.1;;;;;;;35.57;27.62305;937.6232;;;;
2019/07/20 10:18:38;;;;;;;5.5;3.2;;;;;;;35.27;28.4375;937.6721;;;;
2019/07/20 10:21:09;;;;;;;4.3;3.1;;;;;;;35.33;28.15234;937.66;;;;
2019/07/20 10:23:41;;;;;;;4.1;2.8;;;;;;;35.5;27.60645;937.6766;;;;
2019/07/20 10:26:03;;;;;;;4.8;3.1;;;;;;;35.61;28.5918;937.6592;;;;
2019/07/20 10:28:29;;;;;;;4.2;3.3;;;;;;;35.49;28.23438;937.678;;;;
2019/07/20 10:31:01;;;;;;;4.7;3;;;;;;;35.71;27.36621;937.7047;;;;
2019/07/20 10:33:21;;;;;;;5.9;3.3;;;;;;;35.69;26.65234;937.6655;;;;
2019/07/20 10:35:49;;;;;;;4.8;3.4;;;;;;;35.61;27.62598;937.65;;;;
2019/07/20 10:38:13;;;;;;;6.1;3.3;;;;;;;35.49;28.875;937.6688;;;;
2019/07/20 10:40:38;;;;;;;4.8;3;;;;;;;35.7;27.64355;937.5962;;;;
2019/07/20 10:43:06;;;;;;;3.8;3.3;;;;;;;35.61;28.82227;937.565;;;;
2019/07/20 10:45:29;;;;;;;5.4;3.2;;;;;;;35.54;27.82715;937.5497;;;;
2019/07/20 10:47:53;;;;;;;4.5;3.3;;;;;;;35.31;28.80273;937.6209;;;;
2019/07/20 10:50:25;;;;;;;7.3;3.3;;;;;;;35.77;28.14355;937.6449;;;;
2019/07/20 10:52:45;;;;;;;9.9;3.4;;;;;;;36;28.06055;937.5639;;;;
2019/07/20 10:55:21;;;;;;;6.8;3.3;;;;;;;36.22;27.2998;937.5596;;;;
2019/07/20 10:57:45;;;;;;;4.7;3.2;;;;;;;35.76;29.0127;937.5536;;;;
2019/07/20 11:00:11;;;;;;;4;3.3;;;;;;;35.52;29.28711;937.509;;;;
2019/07/20 11:02:37;;;;;;;7.6;3.6;;;;;;;35.02;29.9668;937.5036;;;;
2019/07/20 11:05:02;;;;;;;9.5;3.5;;;;;;;34.96;31.30176;937.5911;;;;
2019/07/20 11:07:35;;;;;;;7;3.5;;;;;;;35.15;29.10742;937.5579;;;;
2019/07/20 11:10:02;;;;;;;5.6;3.5;;;;;;;35.28;29.0791;937.6254;;;;
2019/07/20 11:12:26;;;;;;;6.2;3.3;;;;;;;35.33;29.36035;937.6506;;;;
2019/07/20 11:14:53;;;;;;;5.7;3.6;;;;;;;35.27;31.52832;937.6323;;;;
2019/07/20 11:17:20;;;;;;;5.8;3.5;;;;;;;35.09;30.06738;937.6548;;;;
2019/07/20 11:19:48;;;;;;;6.6;3.8;;;;;;;34.36;31.69434;937.5444;;;;
2019/07/20 11:22:13;;;;;;;5.1;3.5;;;;;;;34.23;30.8418;937.586;;;;
2019/07/20 11:24:45;;;;;;;5.6;3.6;;;;;;;33.64;32.93164;937.6183;;;;
2019/07/20 11:27:06;;;;;;;6;3.6;;;;;;;33.83;31.65723;937.5952;;;;
2019/07/20 11:29:30;;;;;;;5.5;3.7;;;;;;;34.02;33.19922;937.6042;;;;
2019/07/20 11:31:58;;;;;;;5.1;3.5;;;;;;;33.83;33.18652;937.533;;;;
2019/07/20 11:34:26;;;;;;;5;3.4;;;;;;;34.17;32.5127;937.6756;;;;
2019/07/20 11:36:51;;;;;;;8.9;3.8;;;;;;;34.23;31.39648;937.66;;;;
2019/07/20 11:39:19;;;;;;;6.8;3.9;;;;;;;34.02;33.35645;937.6028;;;;
2019/07/20 11:41:44;;;;;;;9.1;4.3;;;;;;;33.46;34.18066;937.5906;;;;
2019/07/20 11:44:12;;;;;;;15.4;4.3;;;;;;;33.53;34.1377;937.6266;;;;
2019/07/20 11:46:41;;;;;;;7.1;3.8;;;;;;;33.63;33.82031;937.6209;;;;
2019/07/20 11:49:03;;;;;;;23;4.4;;;;;;;33.74;34.06934;937.7051;;;;
2019/07/20 11:51:29;;;;;;;8.6;4;;;;;;;33.62;34.2168;937.6962;;;;
2019/07/20 11:54:15;;;;;;;15.4;4.3;;;;;;;33.51;33.77539;937.6387;;;;
2019/07/20 11:56:37;;;;;;;9.5;4.1;;;;;;;33.2;35.02637;937.6479;;;;
2019/07/20 11:59:04;;;;;;;17.8;4.7;;;;;;;33.11;34.69531;937.6467;;;;
2019/07/20 12:01:29;;;;;;;10;3.8;;;;;;;33.23;34.63281;937.6501;;;;
2019/07/20 12:03:59;;;;;;;8.9;4.1;;;;;;;33.5;34.4248;937.6705;;;;
2019/07/20 12:06:27;;;;;;;25.4;4.3;;;;;;;33.78;32.56836;937.645;;;;
2019/07/20 12:08:50;;;;;;;10.8;4;;;;;;;33.45;33.65039;937.5935;;;;
2019/07/20 12:11:15;;;;;;;7.7;3.7;;;;;;;33.28;33.75879;937.6589;;;;
2019/07/20 12:13:47;;;;;;;9.8;3.9;;;;;;;33.1;34.75391;937.6799;;;;
2019/07/20 12:16:06;;;;;;;5;3.6;;;;;;;33.15;34.26563;937.5959;;;;
2019/07/20 12:18:30;;;;;;;5.5;3.6;;;;;;;33.53;33.57324;937.5644;;;;
2019/07/20 12:20:57;;;;;;;6.7;3.7;;;;;;;33.38;34.75195;937.5573;;;;
2019/07/20 12:23:22;;;;;;;6;3.7;;;;;;;33.34;33.99121;937.5209;;;;
2019/07/20 12:25:47;;;;;;;4.9;3.8;;;;;;;33.38;33.63379;937.5137;;;;
2019/07/20 12:28:12;;;;;;;6.1;3.9;;;;;;;33.31;33.24414;937.5436;;;;
2019/07/20 12:30:36;;;;;;;7.2;4;;;;;;;33;35.98438;937.5622;;;;
2019/07/20 12:33:06;;;;;;;5.6;3.7;;;;;;;32.82;33.84473;937.5645;;;;
2019/07/20 12:35:30;;;;;;;6.7;3.9;;;;;;;32.69;33.31934;937.5262;;;;
2019/07/20 12:37:56;;;;;;;5.4;3.8;;;;;;;32.88;33.30859;937.5719;;;;
2019/07/20 12:40:23;;;;;;;5.2;3.5;;;;;;;33.02;34.83203;937.5672;;;;
2019/07/20 12:42:49;;;;;;;5.2;3.8;;;;;;;33.06;36.14551;937.5721;;;;
2019/07/20 12:45:14;;;;;;;5;3.7;;;;;;;32.96;34.91113;937.543;;;;
2019/07/20 12:47:42;;;;;;;7;3.9;;;;;;;32.93;36.02637;937.5712;;;;
2019/07/20 12:50:05;;;;;;;7;4;;;;;;;33.11;33.79395;937.475;;;;
2019/07/20 12:52:31;;;;;;;5.9;3.9;;;;;;;33.41;34.32129;937.5594;;;;
2019/07/20 12:54:56;;;;;;;8.5;3.8;;;;;;;33.64;34.32715;937.609;;;;
2019/07/20 12:57:21;;;;;;;6.7;4;;;;;;;33.39;33.69434;937.5069;;;;
2019/07/20 12:59:48;;;;;;;5.9;3.8;;;;;;;32.82;34.39648;937.5117;;;;
2019/07/20 13:02:19;;;;;;;5.8;3.9;;;;;;;32.85;34.43457;937.5762;;;;
2019/07/20 13:04:49;;;;;;;6;3.9;;;;;;;32.64;35.81152;937.6061;;;;
2019/07/20 13:10:59;;;;;;;5;3.9;;;;;;;33.13;34.22754;937.5645;;;;
2019/07/20 13:13:24;;;;;;;8.4;4.1;;;;;;;32.91;34.81152;937.5173;;;;
2019/07/20 13:15:52;;;;;;;7;4.2;;;;;;;32.6;33.24023;937.4546;;;;
2019/07/20 13:18:14;;;;;;;4.1;3.7;;;;;;;32.35;33.89355;937.4878;;;;
2019/07/20 13:20:40;;;;;;;8.8;4;;;;;;;31.96;34.85938;937.4756;;;;
2019/07/20 13:23:05;;;;;;;6.1;3.9;;;;;;;31.74;34.98535;937.5158;;;;
2019/07/20 13:25:38;;;;;;;9.2;4.3;;;;;;;31.54;34.71875;937.5474;;;;
2019/07/20 13:28:06;;;;;;;5.3;3.9;;;;;;;31.12;34.7832;937.5471;;;;
2019/07/20 13:30:37;;;;;;;7;4.1;;;;;;;31.01;36.01855;937.6055;;;;
2019/07/20 13:33:07;;;;;;;8.2;4.3;;;;;;;30.94;36.21582;937.6099;;;;
2019/07/20 13:35:38;;;;;;;4.5;3.7;;;;;;;31;35.7666;937.6253;;;;
2019/07/20 13:38:05;;;;;;;9.2;4;;;;;;;30.97;36.94727;937.6794;;;;
2019/07/20 13:40:34;;;;;;;8.1;3.9;;;;;;;31.01;36.56836;937.6844;;;;
2019/07/20 13:42:58;;;;;;;5;3.6;;;;;;;30.99;36.18359;937.7333;;;;
2019/07/20 13:45:31;;;;;;;7.3;3.9;;;;;;;30.99;35.26367;937.7319;;;;
2019/07/20 13:48:02;;;;;;;8.7;3.7;;;;;;;31.1;35.34375;937.7;;;;
2019/07/20 13:50:40;;;;;;;7.5;4;;;;;;;31.09;35.78418;937.6842;;;;
2019/07/20 13:53:02;;;;;;;6.1;3.5;;;;;;;31.12;35.4873;937.7235;;;;
2019/07/20 13:55:27;;;;;;;7.2;3.6;;;;;;;31.16;35.875;937.7061;;;;
2019/07/20 13:57:59;;;;;;;4.8;3.6;;;;;;;31.02;35.92285;937.6791;;;;
2019/07/20 14:00:18;;;;;;;6.9;3.7;;;;;;;31.08;35.60547;937.7869;;;;
2019/07/20 14:02:43;;;;;;;5.4;3.7;;;;;;;31.12;36.08594;937.8289;;;;
2019/07/20 14:05:09;;;;;;;9.6;3.9;;;;;;;31.22;36.28613;937.8245;;;;
2019/07/20 14:08:08;;;;;;;4.4;3.8;;;;;;;31.55;35.85645;937.9358;;;;
2019/07/20 14:10:38;;;;;;;6;3.7;;;;;;;31.71;36.30078;937.9031;;;;
2019/07/20 14:13:02;;;;;;;9;3.4;;;;;;;32.24;37.375;937.9122;;;;
2019/07/20 14:15:27;;;;;;;10.7;3.5;;;;;;;32.58;36.05859;937.8719;;;;
2019/07/20 14:17:53;;;;;;;6.1;3.5;;;;;;;32.51;34.44531;937.9255;;;;
2019/07/20 14:20:27;;;;;;;7.1;3.5;;;;;;;32.33;35.48633;937.963;;;;
2019/07/20 14:22:56;;;;;;;5.6;3.5;;;;;;;32.58;35.68652;938.009;;;;
2019/07/20 14:25:19;;;;;;;4.5;3.5;;;;;;;32.64;35.29492;938.0203;;;;
2019/07/20 14:27:53;;;;;;;8.9;3.6;;;;;;;32.37;36.41406;938.1049;;;;
2019/07/20 14:30:21;;;;;;;11.3;4;;;;;;;31.9;38.17383;938.2722;;;;